Time;durP1;ratioP1;P1;durP2;ratioP2;P2;SDS_P1;SDS_P2;PMS_P1;PMS_P2;Temp;Humidity;BMP_temperature;BMP_pressure;BME280_temperature;BME280_humidity;BME280_pressure;Samples;Min_cycle;Max_cycle;Signal;HPM_P1;HPM_P2
2024/03/07 00:00:17;;;;;;;6.25;5.65;;;;;;;19.98;41.03;102819.91;5041309;28;20113;-67
2024/03/07 00:02:50;;;;;;;6.28;5.57;;;;;;;19.93;41.09;102814.19;5062039;28;20044;-67
2024/03/07 00:05:16;;;;;;;6.00;5.38;;;;;;;19.92;41.09;102818.59;5044910;28;20044;-67
2024/03/07 00:07:43;;;;;;;6.97;5.80;;;;;;;19.92;41.12;102828.34;5057789;28;20031;-67
2024/03/07 00:10:10;;;;;;;6.38;5.40;;;;;;;19.84;41.14;102822.91;5063512;28;20063;-67
2024/03/07 00:12:38;;;;;;;5.97;5.38;;;;;;;19.74;41.17;102806.97;5058354;28;20052;-67
2024/03/07 00:15:05;;;;;;;6.25;5.65;;;;;;;19.76;41.21;102810.34;5054120;28;20040;-67
2024/03/07 00:17:31;;;;;;;6.00;5.40;;;;;;;19.82;41.12;102827.47;5064834;28;20048;-67
2024/03/07 00:19:57;;;;;;;6.07;5.47;;;;;;;19.80;41.26;102826.78;5054823;28;20085;-68
2024/03/07 00:22:24;;;;;;;5.65;4.95;;;;;;;19.79;41.24;102828.59;5058295;28;20043;-67
2024/03/07 00:24:49;;;;;;;6.05;5.45;;;;;;;19.77;41.14;102827.88;5057670;28;20044;-70
2024/03/07 00:27:15;;;;;;;5.45;4.95;;;;;;;19.74;41.24;102829.94;5058207;28;20575;-68
2024/03/07 00:29:41;;;;;;;6.28;5.65;;;;;;;19.73;41.27;102829.09;5058020;28;20055;-68
2024/03/07 00:32:07;;;;;;;6.18;5.35;;;;;;;19.70;41.34;102826.72;5065969;28;20044;-68
2024/03/07 00:34:33;;;;;;;5.53;5.00;;;;;;;19.69;41.31;102837.41;5065621;28;20051;-68
2024/03/07 00:36:59;;;;;;;5.80;5.25;;;;;;;19.64;41.29;102831.69;5047670;28;20101;-68
2024/03/07 00:39:25;;;;;;;5.50;5.00;;;;;;;19.62;41.44;102837.09;5069484;28;20037;-68
2024/03/07 00:41:51;;;;;;;5.90;5.30;;;;;;;19.60;41.38;102837.25;5062901;28;20040;-68
2024/03/07 00:44:17;;;;;;;5.88;5.18;;;;;;;19.58;41.28;102838.34;5038102;28;20039;-68
2024/03/07 00:46:43;;;;;;;5.93;5.32;;;;;;;19.56;41.51;102833.16;5051815;28;20522;-68
2024/03/07 00:49:08;;;;;;;5.25;4.75;;;;;;;19.54;41.48;102834.25;5055956;28;20043;-67
2024/03/07 00:51:34;;;;;;;5.60;5.00;;;;;;;19.44;41.54;102809.56;5059020;28;20052;-67
2024/03/07 00:54:00;;;;;;;6.28;5.57;;;;;;;19.53;41.40;102833.38;5043483;28;20032;-67
2024/03/07 00:56:25;;;;;;;5.72;5.20;;;;;;;19.52;41.42;102831.72;5053106;28;20124;-67
2024/03/07 00:58:51;;;;;;;5.65;5.15;;;;;;;19.44;41.55;102826.25;5062836;28;20730;-68
2024/03/07 01:01:18;;;;;;;5.57;5.05;;;;;;;19.46;41.42;102831.41;5058290;28;20633;-67
2024/03/07 01:03:44;;;;;;;5.80;5.20;;;;;;;19.45;41.47;102840.31;5061344;28;20120;-68
2024/03/07 01:06:10;;;;;;;5.90;5.30;;;;;;;19.44;41.62;102833.34;5057695;28;20127;-67
2024/03/07 01:08:36;;;;;;;5.30;4.80;;;;;;;19.42;41.62;102835.28;5061878;28;20102;-67
2024/03/07 01:11:12;;;;;;;5.72;5.22;;;;;;;19.38;41.58;102818.81;5063367;28;20036;-67
2024/03/07 01:13:41;;;;;;;5.93;5.32;;;;;;;19.20;41.57;102792.13;5063009;28;20129;-68
2024/03/07 01:16:07;;;;;;;5.70;5.07;;;;;;;19.36;41.43;102833.97;5062006;28;20055;-68
2024/03/07 01:18:33;;;;;;;5.55;5.05;;;;;;;19.37;41.60;102829.50;5057803;28;20053;-67
2024/03/07 01:21:02;;;;;;;6.50;5.20;;;;;;;19.31;41.73;102821.16;5065621;28;20400;-67
2024/03/07 01:23:28;;;;;;;6.10;5.22;;;;;;;19.27;41.54;102814.44;5061681;28;20036;-68
2024/03/07 01:25:58;;;;;;;5.15;4.65;;;;;;;19.30;41.60;102813.34;5047490;28;20472;-67
2024/03/07 01:28:29;;;;;;;6.15;4.70;;;;;;;19.30;41.67;102821.28;5046145;28;20048;-67
2024/03/07 01:30:57;;;;;;;4.85;4.35;;;;;;;19.29;41.64;102819.59;5065401;28;20115;-67
2024/03/07 01:33:23;;;;;;;5.47;4.72;;;;;;;19.24;41.70;102820.00;5055904;28;20054;-67
2024/03/07 01:35:50;;;;;;;6.10;5.43;;;;;;;19.19;41.84;102814.22;5048762;28;20136;-69
2024/03/07 01:38:16;;;;;;;5.63;4.85;;;;;;;19.05;41.64;102790.81;5059080;28;20524;-67
2024/03/07 01:40:45;;;;;;;5.05;4.55;;;;;;;19.20;41.67;102818.56;5062965;28;20040;-67
2024/03/07 01:43:11;;;;;;;5.10;4.60;;;;;;;19.18;41.70;102814.38;5047532;28;20040;-68
2024/03/07 01:45:38;;;;;;;5.45;4.95;;;;;;;19.18;41.72;102817.84;5057048;28;20052;-67
2024/03/07 01:48:05;;;;;;;5.28;4.78;;;;;;;19.15;41.84;102811.97;5056919;28;20098;-68
2024/03/07 01:50:32;;;;;;;5.75;5.10;;;;;;;19.12;41.68;102815.72;5061110;28;20357;-69
2024/03/07 01:53:00;;;;;;;5.68;5.15;;;;;;;19.06;41.61;102807.47;5054052;28;20042;-69
2024/03/07 01:55:27;;;;;;;5.28;4.68;;;;;;;19.07;41.76;102807.34;5054503;28;20044;-69
2024/03/07 01:57:56;;;;;;;5.25;4.68;;;;;;;19.08;41.79;102816.09;5051259;28;20112;-67
2024/03/07 02:00:22;;;;;;;5.85;5.25;;;;;;;19.08;41.79;102808.19;5059221;28;20047;-69
2024/03/07 02:02:48;;;;;;;5.45;4.72;;;;;;;19.04;42.00;102812.06;5055154;28;20048;-67
2024/03/07 02:05:14;;;;;;;5.32;4.72;;;;;;;19.04;41.92;102810.25;5054866;28;20075;-67
2024/03/07 02:07:40;;;;;;;5.95;5.22;;;;;;;19.01;41.89;102811.31;5046225;28;20044;-67
2024/03/07 02:10:06;;;;;;;5.50;4.88;;;;;;;19.01;41.96;102810.47;5063175;28;20040;-66
2024/03/07 02:12:32;;;;;;;5.80;5.20;;;;;;;19.00;41.94;102804.34;5047447;28;20040;-67
2024/03/07 02:14:58;;;;;;;5.03;4.53;;;;;;;18.97;41.84;102809.06;5042080;28;20128;-68
2024/03/07 02:17:25;;;;;;;5.80;5.20;;;;;;;18.94;42.08;102811.97;5063271;28;20143;-67
2024/03/07 02:19:51;;;;;;;5.82;4.85;;;;;;;18.89;42.08;102801.78;5063195;28;20380;-67
2024/03/07 02:22:17;;;;;;;5.20;4.70;;;;;;;18.92;41.94;102809.44;5063177;28;20044;-67
2024/03/07 02:24:45;;;;;;;6.10;4.68;;;;;;;18.90;41.90;102813.19;5068765;28;20376;-67
2024/03/07 02:27:11;;;;;;;5.10;4.60;;;;;;;18.89;41.93;102809.69;5052195;28;20456;-67
2024/03/07 02:29:37;;;;;;;4.97;4.47;;;;;;;18.87;41.94;102802.88;5051306;28;20139;-67
2024/03/07 02:32:03;;;;;;;5.15;4.55;;;;;;;18.85;42.07;102800.38;5064569;28;20127;-67
2024/03/07 02:34:29;;;;;;;5.65;4.60;;;;;;;18.82;42.24;102784.75;5045663;28;20053;-67
2024/03/07 02:36:55;;;;;;;5.22;4.72;;;;;;;18.86;41.86;102802.03;5060091;28;20124;-68
2024/03/07 02:39:24;;;;;;;4.95;4.35;;;;;;;18.79;42.13;102794.72;5058048;28;20102;-67
2024/03/07 02:41:50;;;;;;;6.18;4.38;;;;;;;18.80;42.18;102799.03;5064401;28;20121;-67
2024/03/07 02:44:16;;;;;;;4.95;4.45;;;;;;;18.66;42.12;102781.69;5064907;28;20539;-68
2024/03/07 02:46:43;;;;;;;5.82;4.57;;;;;;;18.81;42.00;102808.63;5064094;28;20036;-67
2024/03/07 02:49:09;;;;;;;5.13;4.47;;;;;;;18.71;41.97;102798.84;5065595;28;20036;-67
2024/03/07 02:51:35;;;;;;;5.03;4.45;;;;;;;18.73;42.00;102804.00;5061923;28;20459;-67
2024/03/07 02:54:05;;;;;;;4.75;4.22;;;;;;;18.75;42.02;102817.06;5066263;28;20040;-67
2024/03/07 02:56:31;;;;;;;4.95;4.15;;;;;;;18.70;42.28;102805.09;5037227;28;20055;-67
2024/03/07 02:58:57;;;;;;;6.05;4.68;;;;;;;18.69;41.93;102808.69;5064250;28;20123;-67
2024/03/07 03:01:22;;;;;;;4.50;4.00;;;;;;;18.66;42.28;102805.44;5060223;28;21462;-67
2024/03/07 03:03:48;;;;;;;5.22;4.50;;;;;;;18.53;42.33;102776.56;5056173;28;20041;-67
2024/03/07 03:06:14;;;;;;;5.95;4.78;;;;;;;18.65;42.27;102793.22;5042786;28;20732;-67
2024/03/07 03:08:39;;;;;;;4.93;4.43;;;;;;;18.64;42.26;102787.09;5064437;28;20024;-67
2024/03/07 03:11:05;;;;;;;5.05;4.53;;;;;;;18.59;42.38;102780.50;5062142;28;20036;-67
2024/03/07 03:13:30;;;;;;;5.22;4.30;;;;;;;18.59;42.22;102789.25;5057132;28;20048;-67
2024/03/07 03:15:56;;;;;;;4.93;4.20;;;;;;;18.60;42.32;102782.16;5066611;28;20060;-67
2024/03/07 03:18:23;;;;;;;4.75;4.25;;;;;;;18.55;42.22;102771.16;5053954;28;20075;-67
2024/03/07 03:20:52;;;;;;;5.45;4.57;;;;;;;18.57;42.29;102777.97;5058053;28;20041;-67
2024/03/07 03:23:18;;;;;;;5.22;4.28;;;;;;;18.58;42.16;102773.53;5058472;28;20047;-67
2024/03/07 03:25:45;;;;;;;4.80;4.28;;;;;;;18.54;42.05;102777.38;5063674;28;20048;-67
2024/03/07 03:28:11;;;;;;;5.10;4.57;;;;;;;18.51;42.36;102775.84;5061388;28;20404;-67
2024/03/07 03:30:41;;;;;;;4.93;4.43;;;;;;;18.52;42.25;102777.53;5057796;28;20074;-67
2024/03/07 03:33:07;;;;;;;4.80;4.30;;;;;;;18.49;42.40;102774.25;5054819;28;20041;-66
2024/03/07 03:35:33;;;;;;;5.22;4.47;;;;;;;18.47;42.44;102770.91;5045378;28;20070;-68
2024/03/07 03:37:59;;;;;;;4.95;4.30;;;;;;;18.47;42.24;102769.13;5058831;28;20040;-68
2024/03/07 03:40:25;;;;;;;5.00;4.20;;;;;;;18.45;42.41;102764.94;5041326;28;20090;-67
2024/03/07 03:42:51;;;;;;;5.97;4.47;;;;;;;18.46;42.27;102771.88;5064738;28;20043;-67
2024/03/07 03:45:17;;;;;;;5.88;4.30;;;;;;;18.41;42.36;102769.63;5054010;28;20051;-67
2024/03/07 03:47:44;;;;;;;4.90;4.35;;;;;;;18.40;42.34;102768.78;5063958;28;20036;-67
2024/03/07 03:50:12;;;;;;;4.72;4.22;;;;;;;18.39;42.35;102761.81;5064460;28;20050;-67
2024/03/07 03:52:39;;;;;;;4.50;4.05;;;;;;;18.33;42.31;102750.94;5059687;28;20036;-67
2024/03/07 03:55:05;;;;;;;5.30;4.28;;;;;;;18.40;42.44;102770.59;5068134;28;20071;-67
2024/03/07 03:57:31;;;;;;;4.97;4.47;;;;;;;18.38;42.44;102768.06;5032496;28;20482;-67
2024/03/07 03:59:58;;;;;;;5.97;5.38;;;;;;;18.37;42.48;102760.28;5057359;28;20681;-67
2024/03/07 04:02:24;;;;;;;5.35;4.80;;;;;;;18.36;42.51;102761.25;5064943;28;20545;-66
2024/03/07 04:04:52;;;;;;;4.88;4.38;;;;;;;18.37;42.23;102761.13;5066523;28;20825;-67
2024/03/07 04:07:18;;;;;;;5.85;4.47;;;;;;;18.34;42.42;102765.81;5060587;28;20041;-70
2024/03/07 04:09:45;;;;;;;5.63;4.47;;;;;;;18.36;42.35;102763.88;5024034;28;20472;-70
2024/03/07 04:12:12;;;;;;;4.80;4.30;;;;;;;18.18;42.37;102738.97;5052629;28;20053;-69
2024/03/07 04:14:40;;;;;;;4.88;4.25;;;;;;;18.31;42.49;102774.81;5054622;28;20113;-68
2024/03/07 04:17:11;;;;;;;5.13;4.13;;;;;;;18.30;42.43;102769.63;5054800;28;20396;-68
2024/03/07 04:19:41;;;;;;;5.13;4.60;;;;;;;18.19;42.27;102751.22;5058234;28;20049;-69
2024/03/07 04:22:11;;;;;;;4.55;4.07;;;;;;;18.30;42.36;102764.34;5060833;28;20124;-68
2024/03/07 04:24:36;;;;;;;5.10;4.50;;;;;;;18.21;42.41;102751.91;5054309;28;20044;-69
2024/03/07 04:27:06;;;;;;;4.90;4.28;;;;;;;18.24;42.28;102760.41;5054351;28;20559;-69
2024/03/07 04:29:32;;;;;;;4.93;4.43;;;;;;;18.17;42.27;102755.75;5057527;28;20071;-69
2024/03/07 04:31:59;;;;;;;4.60;4.03;;;;;;;18.24;42.17;102765.69;5055954;28;20050;-69
2024/03/07 04:34:25;;;;;;;4.53;4.13;;;;;;;18.26;42.26;102771.69;5052085;28;20037;-69
2024/03/07 04:36:51;;;;;;;4.20;3.80;;;;;;;18.29;42.14;102768.78;5056851;28;20082;-68
2024/03/07 04:39:35;;;;;;;4.60;4.20;;;;;;;18.31;42.08;102766.03;5061202;28;20051;-69
2024/03/07 04:42:02;;;;;;;5.40;4.80;;;;;;;18.31;42.07;102760.75;5054845;28;20122;-69
2024/03/07 04:44:29;;;;;;;4.35;3.95;;;;;;;18.35;42.15;102768.31;5056040;28;20060;-69
2024/03/07 04:46:55;;;;;;;4.88;4.38;;;;;;;18.33;42.05;102770.25;5053093;28;20045;-69
2024/03/07 04:49:25;;;;;;;4.78;4.28;;;;;;;18.36;42.01;102766.53;5044919;28;20051;-69
2024/03/07 04:51:51;;;;;;;;;;;;;;;18.36;42.07;102761.25;5054381;28;20085;-68
2024/03/07 04:54:18;;;;;;;4.43;4.03;;;;;;;18.25;41.98;102745.44;5037869;28;19935;-69
2024/03/07 04:56:49;;;;;;;4.43;4.03;;;;;;;18.31;42.20;102766.91;5045030;28;20037;-68
2024/03/07 04:59:16;;;;;;;5.13;4.55;;;;;;;18.33;42.06;102764.97;5056312;28;20656;-68
2024/03/07 05:01:42;;;;;;;168.30;150.77;;;;;;;18.26;42.08;102747.09;5055897;28;20033;-69
2024/03/07 05:04:08;;;;;;;61.40;55.05;;;;;;;18.30;41.95;102759.91;5052704;28;20235;-68
2024/03/07 05:06:34;;;;;;;288.65;264.38;;;;;;;18.18;42.02;102739.81;5057956;28;20100;-68
2024/03/07 05:09:04;;;;;;;182.18;163.43;;;;;;;18.33;42.15;102766.78;5052710;28;20029;-68
2024/03/07 05:11:33;;;;;;;111.63;100.30;;;;;;;18.25;42.07;102755.97;5060609;28;20049;-68
2024/03/07 05:13:59;;;;;;;;;;;;;;;18.27;42.07;102764.59;5042609;28;20032;-67
2024/03/07 05:16:26;;;;;;;5.50;4.20;;;;;;;18.23;42.05;102763.19;5058222;28;20345;-67
2024/03/07 05:18:52;;;;;;;4.75;3.65;;;;;;;18.22;42.01;102761.50;5060337;28;20048;-68
2024/03/07 05:21:37;;;;;;;4.75;4.25;;;;;;;18.18;41.95;102750.38;5058960;28;20039;-68
2024/03/07 05:24:04;;;;;;;4.10;3.70;;;;;;;18.26;42.03;102768.19;5070086;28;20387;-67
2024/03/07 05:26:35;;;;;;;28.52;26.77;;;;;;;18.23;42.18;102763.19;5049063;28;22285;-67
2024/03/07 05:29:05;;;;;;;183.68;159.70;;;;;;;18.31;42.09;102769.53;5067623;28;20033;-68
2024/03/07 05:31:34;;;;;;;276.17;237.95;;;;;;;18.30;42.08;102772.25;5063137;28;20086;-68
2024/03/07 05:34:03;;;;;;;322.23;275.90;;;;;;;18.32;42.21;102776.47;5044666;28;20492;-68
2024/03/07 05:36:32;;;;;;;4.45;3.85;;;;;;;18.35;42.13;102775.41;5059831;28;20078;-68
2024/03/07 05:38:59;;;;;;;4.38;3.97;;;;;;;18.20;42.11;102756.34;5051328;28;20047;-68
2024/03/07 05:41:28;;;;;;;4.57;3.42;;;;;;;18.36;42.15;102779.72;5058773;28;20060;-68
2024/03/07 05:43:54;;;;;;;4.45;4.05;;;;;;;18.37;41.96;102789.28;5057013;28;20078;-68
2024/03/07 05:46:20;;;;;;;4.65;4.15;;;;;;;18.37;42.03;102791.94;5057410;28;20094;-68
2024/03/07 05:48:46;;;;;;;4.00;3.60;;;;;;;18.38;42.02;102790.97;5062596;28;20036;-69
2024/03/07 05:51:11;;;;;;;4.13;3.72;;;;;;;18.37;41.98;102791.94;5060425;28;20098;-68
2024/03/07 05:53:38;;;;;;;4.63;3.80;;;;;;;18.28;41.96;102779.47;5058139;28;20048;-68
2024/03/07 05:56:04;;;;;;;4.28;3.88;;;;;;;18.37;42.06;102786.66;5058303;28;20031;-68
2024/03/07 05:58:29;;;;;;;4.10;3.70;;;;;;;18.36;42.17;102787.63;5061550;28;20140;-68
2024/03/07 06:00:55;;;;;;;5.53;3.70;;;;;;;18.36;42.16;102782.34;5054100;28;20045;-68
2024/03/07 06:03:21;;;;;;;4.18;3.78;;;;;;;18.33;42.10;102786.06;5058008;28;20036;-69
2024/03/07 06:05:50;;;;;;;4.95;3.67;;;;;;;18.28;42.03;102771.56;5063078;28;20140;-69
2024/03/07 06:08:17;;;;;;;4.80;4.13;;;;;;;18.35;42.10;102780.66;5063681;28;20803;-68
2024/03/07 06:10:47;;;;;;;4.25;3.75;;;;;;;18.23;42.17;102763.19;5058343;28;20036;-68
2024/03/07 06:13:18;;;;;;;4.70;3.90;;;;;;;18.33;42.22;102777.31;5058402;28;20045;-68
2024/03/07 06:15:44;;;;;;;4.22;3.83;;;;;;;18.30;41.93;102777.53;5067034;28;20052;-68
2024/03/07 06:18:10;;;;;;;4.68;4.03;;;;;;;18.22;42.40;102767.63;5040311;28;20150;-68
2024/03/07 06:20:37;;;;;;;4.80;3.63;;;;;;;18.28;42.28;102775.03;5079050;28;20031;-68
2024/03/07 06:23:05;;;;;;;4.25;3.60;;;;;;;18.30;42.07;102772.25;5044209;28;20444;-68
2024/03/07 06:25:36;;;;;;;3.70;3.40;;;;;;;18.29;42.14;102776.69;5061565;28;20036;-68
2024/03/07 06:28:09;;;;;;;169.10;133.57;;;;;;;18.28;42.29;102766.28;5061189;28;20040;-68
2024/03/07 06:30:45;;;;;;;4.38;3.95;;;;;;;18.24;42.35;102778.03;5057501;28;20094;-68
2024/03/07 06:33:11;;;;;;;195.45;154.82;;;;;;;18.25;42.27;102790.25;5065433;28;20117;-68
2024/03/07 06:35:38;;;;;;;4.35;3.80;;;;;;;18.24;42.13;102788.59;5066322;28;20385;-68
2024/03/07 06:38:05;;;;;;;4.10;3.70;;;;;;;18.24;42.33;102788.59;5068419;28;20102;-68
2024/03/07 06:40:32;;;;;;;4.78;4.10;;;;;;;18.22;42.22;102793.97;5065004;28;20041;-68
2024/03/07 06:43:03;;;;;;;4.47;4.07;;;;;;;18.16;42.18;102777.81;5059033;28;20031;-68
2024/03/07 06:45:30;;;;;;;4.68;4.07;;;;;;;18.26;42.29;102800.69;5055014;28;20128;-68
2024/03/07 06:47:55;;;;;;;4.72;3.97;;;;;;;18.21;42.17;102802.84;5054183;28;20028;-68
2024/03/07 06:50:21;;;;;;;4.88;3.90;;;;;;;18.26;42.30;102811.22;5062749;28;20663;-68
2024/03/07 06:52:47;;;;;;;25.85;21.98;;;;;;;18.22;42.32;102808.97;5063442;28;20740;-68
2024/03/07 06:55:16;;;;;;;278.55;229.50;;;;;;;18.17;42.28;102806.69;5067297;28;20110;-68
2024/03/07 06:57:43;;;;;;;4.45;3.95;;;;;;;18.17;42.48;102806.69;5027475;28;20052;-67
2024/03/07 07:00:10;;;;;;;4.25;3.85;;;;;;;18.19;42.31;102809.22;5044519;28;20056;-67
2024/03/07 07:02:39;;;;;;;241.10;197.65;;;;;;;18.19;42.36;102812.69;5061512;28;20028;-67
2024/03/07 07:05:10;;;;;;;265.00;217.57;;;;;;;18.18;42.44;102816.28;5066793;28;20079;-67
2024/03/07 07:07:41;;;;;;;152.00;125.70;;;;;;;18.19;42.39;102819.75;5059889;28;20032;-67
2024/03/07 07:10:11;;;;;;;4.40;4.00;;;;;;;18.16;42.29;102820.00;5067580;28;20033;-66
2024/03/07 07:12:36;;;;;;;4.75;4.25;;;;;;;18.19;42.31;102815.34;5062150;28;20050;-67
2024/03/07 07:15:03;;;;;;;24.08;18.67;;;;;;;18.20;42.30;102826.72;5064727;28;20025;-67
2024/03/07 07:17:29;;;;;;;100.65;80.30;;;;;;;18.12;42.22;102817.59;5067294;28;20080;-68
2024/03/07 07:19:57;;;;;;;107.38;91.47;;;;;;;18.02;42.33;102800.84;5057305;28;20777;-67
2024/03/07 07:22:22;;;;;;;248.82;194.75;;;;;;;18.22;42.36;102825.63;5065365;28;20049;-66
2024/03/07 07:24:48;;;;;;;170.57;134.55;;;;;;;18.31;42.33;102830.19;5071654;28;20500;-67
2024/03/07 07:27:14;;;;;;;233.38;179.48;;;;;;;18.31;42.07;102809.09;5057914;28;20055;-67
2024/03/07 07:29:39;;;;;;;262.80;200.82;;;;;;;18.48;41.90;102822.72;5061973;28;20068;-67
2024/03/07 07:32:05;;;;;;;269.58;205.25;;;;;;;18.56;42.00;102822.94;5040769;28;20099;-66
2024/03/07 07:34:32;;;;;;;263.00;201.77;;;;;;;18.65;41.77;102833.63;5058054;28;20186;-67
2024/03/07 07:36:58;;;;;;;242.70;185.35;;;;;;;18.71;41.82;102827.03;5062073;28;20047;-67
2024/03/07 07:39:23;;;;;;;250.13;190.55;;;;;;;18.75;41.66;102835.53;5056301;28;20044;-67
2024/03/07 07:41:49;;;;;;;259.88;197.25;;;;;;;18.78;41.86;102820.28;5063769;28;20048;-67
2024/03/07 07:44:15;;;;;;;254.07;192.02;;;;;;;18.75;41.67;102817.91;5051315;28;20082;-67
2024/03/07 07:46:41;;;;;;;252.85;191.20;;;;;;;18.83;41.75;102825.19;5062375;28;20127;-67
2024/03/07 07:49:07;;;;;;;266.88;204.55;;;;;;;18.83;41.71;102822.53;5044556;28;20116;-67
2024/03/07 07:51:32;;;;;;;5.28;4.78;;;;;;;18.84;41.77;102819.78;5062185;28;20528;-67
2024/03/07 07:53:59;;;;;;;5.50;4.85;;;;;;;18.85;41.67;102817.97;5060374;28;20117;-67
2024/03/07 07:56:24;;;;;;;5.53;4.82;;;;;;;18.85;41.73;102826.75;5040881;28;20071;-67
2024/03/07 07:58:51;;;;;;;5.53;5.03;;;;;;;18.85;41.77;102833.81;5052766;28;20042;-67
2024/03/07 08:01:17;;;;;;;49.63;41.83;;;;;;;18.88;41.43;102829.16;5055735;28;20056;-65
2024/03/07 08:03:44;;;;;;;9.18;6.82;;;;;;;18.85;41.22;102825.91;5049949;28;20119;-69
2024/03/07 08:06:10;;;;;;;43.28;35.28;;;;;;;18.83;41.34;102823.38;5041672;28;20041;-67
2024/03/07 08:08:35;;;;;;;7.07;5.43;;;;;;;18.82;41.45;102829.63;5052001;28;20040;-68
2024/03/07 08:11:01;;;;;;;6.25;5.20;;;;;;;18.73;41.44;102822.47;5051366;28;20045;-66
2024/03/07 08:13:27;;;;;;;6.65;5.13;;;;;;;18.70;41.37;102807.72;5055227;28;20127;-66
2024/03/07 08:15:53;;;;;;;6.43;5.45;;;;;;;18.80;41.57;102828.06;5038709;28;20103;-66
2024/03/07 08:18:20;;;;;;;98.35;88.38;;;;;;;18.74;41.48;102813.59;5054906;28;20045;-67
2024/03/07 08:20:46;;;;;;;95.72;85.97;;;;;;;18.77;41.51;102829.16;5062090;28;20032;-66
2024/03/07 08:23:12;;;;;;;107.72;94.82;;;;;;;18.70;41.55;102820.91;5059003;28;20048;-65
2024/03/07 08:25:41;;;;;;;107.10;95.70;;;;;;;18.72;41.46;102828.72;5050916;28;20032;-66
2024/03/07 08:28:07;;;;;;;48.60;44.80;;;;;;;18.72;41.52;102828.72;5049684;28;20103;-66
2024/03/07 08:30:33;;;;;;;81.88;74.18;;;;;;;18.70;41.55;102833.28;5052736;28;20475;-65
2024/03/07 08:33:01;;;;;;;80.95;73.40;;;;;;;18.71;41.50;102822.59;5024218;28;20045;-66
2024/03/07 08:35:28;;;;;;;67.13;61.15;;;;;;;18.67;41.32;102813.25;5057104;28;20045;-66
2024/03/07 08:37:55;;;;;;;64.55;58.92;;;;;;;18.75;41.28;102824.97;5053229;28;20024;-67
2024/03/07 08:40:23;;;;;;;72.22;65.57;;;;;;;18.78;41.38;102820.28;5044536;28;20431;-65
2024/03/07 08:42:50;;;;;;;85.13;76.93;;;;;;;18.81;41.41;102825.31;5049525;28;20581;-66
2024/03/07 08:45:18;;;;;;;94.43;84.95;;;;;;;18.83;41.30;102826.03;5043017;28;20143;-66
2024/03/07 08:47:49;;;;;;;93.55;84.20;;;;;;;18.86;41.16;102822.31;5051625;28;20723;-66
2024/03/07 08:50:17;;;;;;;95.10;85.55;;;;;;;18.86;41.11;102824.97;5043196;28;20180;-66
2024/03/07 08:52:44;;;;;;;96.25;86.45;;;;;;;18.86;41.32;102820.53;5052491;28;20041;-67
2024/03/07 08:55:16;;;;;;;100.38;89.95;;;;;;;18.86;41.27;102825.78;5055115;28;20111;-66
2024/03/07 08:57:48;;;;;;;99.32;88.97;;;;;;;18.82;41.28;102820.88;5050992;28;20040;-66
2024/03/07 09:00:23;;;;;;;115.78;102.82;;;;;;;18.84;41.31;102819.78;5052881;28;20028;-67
2024/03/07 09:02:52;;;;;;;117.47;104.25;;;;;;;18.82;41.31;102819.06;5051411;28;20064;-67
2024/03/07 09:05:18;;;;;;;108.45;96.80;;;;;;;18.80;41.21;102818.34;5052178;28;20041;-66
2024/03/07 09:07:46;;;;;;;125.53;109.03;;;;;;;18.79;41.09;102819.31;5061076;28;20044;-65
2024/03/07 09:10:14;;;;;;;152.50;124.65;;;;;;;18.78;41.30;102812.38;5048225;28;20048;-68
2024/03/07 09:12:40;;;;;;;161.52;129.13;;;;;;;18.65;41.27;102794.03;5058630;28;20036;-68
2024/03/07 09:15:06;;;;;;;174.48;137.10;;;;;;;18.76;41.31;102810.81;5027178;28;20055;-67
2024/03/07 09:17:32;;;;;;;160.27;129.75;;;;;;;18.69;41.20;102798.13;5051785;28;20053;-68
2024/03/07 09:19:58;;;;;;;145.20;119.75;;;;;;;18.74;41.16;102803.03;5051357;28;20074;-66
2024/03/07 09:22:23;;;;;;;140.50;116.93;;;;;;;18.73;41.31;102803.16;5058270;28;20044;-65
2024/03/07 09:24:49;;;;;;;147.95;120.72;;;;;;;18.72;41.30;102807.59;5026762;28;23246;-66
2024/03/07 09:27:15;;;;;;;139.00;116.90;;;;;;;18.70;41.28;102809.53;5066840;28;20738;-65
2024/03/07 09:29:41;;;;;;;147.18;120.78;;;;;;;18.70;41.35;102825.34;5057531;28;20050;-66
2024/03/07 09:32:09;;;;;;;133.15;113.10;;;;;;;18.73;41.27;102816.34;5041954;28;20045;-66
2024/03/07 09:34:38;;;;;;;130.75;111.10;;;;;;;18.81;41.26;102813.91;5063133;28;20083;-65
2024/03/07 09:37:04;;;;;;;141.75;117.85;;;;;;;18.86;41.16;102817.03;5063533;28;20041;-65
2024/03/07 09:39:31;;;;;;;167.75;133.07;;;;;;;18.89;41.02;102822.06;5060027;28;20424;-64
2024/03/07 09:41:57;;;;;;;169.85;135.15;;;;;;;18.83;40.97;102811.97;5035582;28;20041;-66
2024/03/07 09:44:25;;;;;;;168.65;134.50;;;;;;;18.95;41.06;102826.84;5058514;28;20102;-67
2024/03/07 09:46:55;;;;;;;170.38;134.55;;;;;;;18.96;40.91;102825.88;5053397;28;20112;-67
2024/03/07 09:49:20;;;;;;;114.90;102.40;;;;;;;18.95;40.92;102819.75;5051090;28;20765;-68
2024/03/07 09:51:47;;;;;;;143.13;119.90;;;;;;;18.98;40.82;102818.66;5051642;28;20471;-67
2024/03/07 09:54:14;;;;;;;149.23;122.75;;;;;;;18.99;40.96;102822.97;5047176;28;20484;-67
2024/03/07 09:56:41;;;;;;;142.50;119.07;;;;;;;18.96;40.85;102818.78;5049390;28;20041;-67
2024/03/07 09:59:13;;;;;;;144.55;120.25;;;;;;;18.97;40.80;102817.81;5050096;28;20029;-65
2024/03/07 10:01:41;;;;;;;148.82;122.47;;;;;;;18.97;40.87;102815.19;5058934;28;20057;-66
2024/03/07 10:04:13;;;;;;;141.88;118.68;;;;;;;18.98;40.88;102813.38;5056305;28;20045;-67
2024/03/07 10:06:41;;;;;;;144.23;119.82;;;;;;;18.86;40.66;102791.47;5056530;28;20051;-67
2024/03/07 10:09:07;;;;;;;146.65;120.63;;;;;;;18.88;40.66;102794.00;5030732;28;20714;-67
2024/03/07 10:11:34;;;;;;;160.25;129.25;;;;;;;18.96;40.58;102807.38;5049936;28;20039;-66
2024/03/07 10:14:00;;;;;;;158.68;127.03;;;;;;;18.90;40.67;102794.69;5032470;28;20124;-66
2024/03/07 10:16:25;;;;;;;159.55;128.43;;;;;;;18.93;40.69;102802.38;5048747;28;20132;-65
2024/03/07 10:18:51;;;;;;;163.25;130.63;;;;;;;18.90;40.79;102798.19;5049970;28;20187;-66
2024/03/07 10:21:22;;;;;;;157.32;127.28;;;;;;;18.89;40.69;102795.66;5036292;28;20064;-65
2024/03/07 10:23:48;;;;;;;163.55;130.10;;;;;;;18.88;40.77;102800.09;5049835;28;20146;-66
2024/03/07 10:26:13;;;;;;;166.48;132.43;;;;;;;18.89;40.56;102799.16;5054334;28;20591;-66
2024/03/07 10:28:39;;;;;;;159.43;128.75;;;;;;;18.86;40.67;102793.28;5039808;28;20147;-68
2024/03/07 10:31:11;;;;;;;161.98;129.30;;;;;;;18.89;40.63;102788.59;5053760;28;20041;-67
2024/03/07 10:33:40;;;;;;;163.68;130.32;;;;;;;18.90;40.58;102789.41;5061879;28;20119;-67
2024/03/07 10:36:09;;;;;;;105.30;94.30;;;;;;;18.93;40.51;102781.25;5053203;28;20504;-68
2024/03/07 10:38:38;;;;;;;124.57;109.45;;;;;;;18.95;40.67;102780.16;5054117;28;20068;-67
2024/03/07 10:41:09;;;;;;;152.65;124.03;;;;;;;18.97;40.51;102778.22;5058590;28;20051;-68
2024/03/07 10:43:38;;;;;;;158.63;128.32;;;;;;;18.96;40.45;102765.16;5052586;28;20024;-67
2024/03/07 10:46:06;;;;;;;158.18;127.90;;;;;;;18.97;40.59;102766.81;5054287;28;21694;-66
2024/03/07 10:48:39;;;;;;;145.48;120.90;;;;;;;18.98;40.54;102763.22;5057317;28;20033;-66
2024/03/07 10:51:33;;;;;;;155.18;126.45;;;;;;;18.98;40.54;102771.97;5024502;28;20197;-66
2024/03/07 10:54:05;;;;;;;146.30;120.50;;;;;;;18.98;40.41;102771.97;5056021;28;20028;-66
2024/03/07 10:56:41;;;;;;;130.10;110.90;;;;;;;18.98;40.51;102763.22;5056074;28;20123;-66
2024/03/07 10:59:20;;;;;;;139.10;116.07;;;;;;;18.98;40.38;102761.41;5055658;28;20106;-67
2024/03/07 11:02:24;;;;;;;130.30;111.77;;;;;;;18.96;40.48;102760.69;5061043;28;20047;-67
2024/03/07 11:04:51;;;;;;;157.70;127.03;;;;;;;18.95;40.37;102759.03;5055506;28;20510;-66
2024/03/07 11:07:22;;;;;;;168.23;132.65;;;;;;;18.94;40.35;102756.50;5056662;28;20127;-66
2024/03/07 11:09:52;;;;;;;177.57;138.70;;;;;;;18.94;40.42;102754.72;5048539;28;20117;-66
2024/03/07 11:12:27;;;;;;;140.98;118.10;;;;;;;18.95;40.42;102753.75;5058157;28;20031;-67
2024/03/07 11:14:56;;;;;;;156.75;126.68;;;;;;;18.98;40.64;102747.38;5051587;28;20032;-66